createdAt,value
2022-09-24T00:01:51.548Z,32.45
2022-09-24T00:04:22.407Z,32.45
2022-09-24T00:09:26.673Z,32.44
2022-09-24T00:11:56.822Z,32.43
2022-09-24T00:14:26.968Z,32.43
2022-09-24T00:16:57.292Z,32.43
2022-09-24T00:19:27.836Z,32.44
2022-09-24T00:21:58.063Z,32.42
2022-09-24T00:24:46.618Z,32.42
2022-09-24T00:27:17.144Z,32.41
2022-09-24T00:29:47.576Z,32.39
2022-09-24T00:32:18.092Z,32.40
2022-09-24T00:34:48.632Z,32.40
2022-09-24T00:37:19.638Z,32.40
2022-09-24T00:39:52.524Z,32.40
2022-09-24T00:42:23.399Z,32.39
2022-09-24T00:44:58.251Z,32.38
2022-09-24T00:47:35.886Z,32.38
2022-09-24T00:50:24.229Z,32.36
2022-09-24T00:53:08.203Z,32.36
2022-09-24T00:55:44.131Z,32.35
2022-09-24T00:58:15.479Z,32.36
2022-09-24T01:00:47.710Z,32.36
2022-09-24T01:03:24.879Z,32.35
2022-09-24T01:05:55.710Z,32.35
2022-09-24T01:08:25.788Z,32.34
2022-09-24T01:11:30.005Z,32.33
2022-09-24T01:14:23.672Z,32.32
2022-09-24T01:17:06.303Z,32.30
2022-09-24T01:20:21.489Z,32.28
2022-09-24T01:23:17.979Z,32.28
2022-09-24T01:26:06.934Z,32.28
2022-09-24T01:28:59.874Z,32.26
2022-09-24T01:31:39.305Z,32.25
2022-09-24T01:34:12.953Z,32.25
2022-09-24T01:36:46.851Z,32.25
2022-09-24T01:39:17.533Z,32.23
2022-09-24T01:41:49.699Z,32.23
2022-09-24T01:44:20.562Z,32.22
2022-09-24T01:46:54.526Z,32.23
2022-09-24T01:49:24.400Z,32.22
2022-09-24T01:52:02.099Z,32.22
2022-09-24T01:54:39.715Z,32.20
2022-09-24T01:57:17.666Z,32.18
2022-09-24T01:59:55.591Z,32.17
2022-09-24T02:02:37.140Z,32.16
2022-09-24T02:05:16.793Z,32.15
2022-09-24T02:07:59.005Z,32.13
2022-09-24T02:10:38.489Z,32.13
2022-09-24T02:13:15.724Z,32.13
2022-09-24T02:15:53.184Z,32.12
2022-09-24T02:18:35.568Z,32.12
2022-09-24T02:21:09.715Z,32.12
2022-09-24T02:23:46.470Z,32.11
2022-09-24T02:26:17.233Z,32.11
2022-09-24T02:28:47.900Z,32.10
2022-09-24T02:31:23.363Z,32.10
2022-09-24T02:34:13.176Z,32.10
2022-09-24T02:36:43.400Z,32.08
2022-09-24T02:39:13.626Z,32.08
2022-09-24T02:41:44.444Z,32.08
2022-09-24T02:44:14.710Z,32.08
2022-09-24T02:46:44.825Z,32.07
2022-09-24T02:49:18.182Z,32.07
2022-09-24T02:51:48.743Z,32.07
2022-09-24T02:54:19.080Z,32.06
2022-09-24T02:56:49.817Z,32.07
2022-09-24T02:59:20.990Z,32.06
2022-09-24T03:01:51.452Z,32.06
2022-09-24T03:04:24.416Z,32.06
2022-09-24T03:06:54.802Z,32.04
2022-09-24T03:09:25.045Z,32.04
2022-09-24T03:11:54.783Z,32.02
2022-09-24T03:14:25.427Z,32.01
2022-09-24T03:16:56.052Z,32.00
2022-09-24T03:19:29.837Z,31.99
2022-09-24T03:21:59.626Z,31.96
2022-09-24T03:24:29.632Z,31.93
2022-09-24T03:27:00.091Z,31.93
2022-09-24T03:29:43.305Z,31.91
2022-09-24T03:32:13.633Z,31.90
2022-09-24T03:34:46.089Z,31.89
2022-09-24T03:37:16.006Z,31.87
2022-09-24T03:39:46.350Z,31.87
2022-09-24T03:42:17.265Z,31.86
2022-09-24T03:44:47.459Z,31.86
2022-09-24T03:47:17.755Z,31.85
2022-09-24T03:49:49.991Z,31.86
2022-09-24T03:52:20.001Z,31.84
2022-09-24T03:54:49.772Z,31.84
2022-09-24T03:57:20.220Z,31.83
2022-09-24T03:59:52.811Z,31.84
2022-09-24T04:02:22.569Z,31.83
2022-09-24T04:04:54.878Z,31.83
2022-09-24T04:07:25.100Z,31.84
2022-09-24T04:09:55.424Z,31.86
2022-09-24T04:12:25.372Z,31.85
2022-09-24T04:14:55.414Z,31.85
2022-09-24T04:17:30.463Z,31.86
2022-09-24T04:20:02.710Z,31.86
2022-09-24T04:22:32.481Z,31.88
2022-09-24T04:25:04.259Z,31.90
2022-09-24T04:27:36.503Z,31.94
2022-09-24T04:30:07.644Z,31.97
2022-09-24T04:32:37.888Z,31.99
2022-09-24T04:35:11.496Z,32.02
2022-09-24T04:37:41.251Z,32.04
2022-09-24T04:40:13.021Z,32.07
2022-09-24T04:42:43.624Z,32.10
2022-09-24T04:45:18.011Z,32.14
2022-09-24T04:47:56.625Z,32.19
2022-09-24T04:50:33.475Z,32.25
2022-09-24T04:53:04.817Z,32.29
2022-09-24T04:55:36.215Z,32.34
2022-09-24T04:58:08.091Z,32.40
2022-09-24T05:00:40.137Z,32.45
2022-09-24T05:03:13.279Z,32.52
2022-09-24T05:05:50.566Z,32.58
2022-09-24T05:08:20.324Z,32.63
2022-09-24T05:10:50.853Z,32.67
2022-09-24T05:13:22.011Z,32.71
2022-09-24T05:15:52.301Z,32.74
2022-09-24T05:18:22.705Z,32.77
2022-09-24T05:20:55.414Z,32.82
2022-09-24T05:23:25.717Z,32.88
2022-09-24T05:26:12.908Z,32.95
2022-09-24T05:28:43.634Z,32.99
2022-09-24T05:31:13.489Z,33.06
2022-09-24T05:33:44.531Z,33.12
2022-09-24T05:36:16.613Z,33.20
2022-09-24T05:38:46.704Z,33.27
2022-09-24T05:41:16.430Z,33.35
2022-09-24T05:43:46.709Z,33.41
2022-09-24T05:46:17.301Z,33.47
2022-09-24T05:48:46.937Z,33.51
2022-09-24T05:51:19.981Z,33.56
2022-09-24T05:53:50.767Z,33.62
2022-09-24T05:56:21.419Z,33.70
2022-09-24T05:58:52.387Z,33.77
2022-09-24T06:01:22.629Z,33.84
2022-09-24T06:03:52.466Z,33.92
2022-09-24T06:06:25.036Z,33.99
2022-09-24T06:08:56.702Z,34.05
2022-09-24T06:11:31.142Z,34.11
2022-09-24T06:14:03.451Z,34.18
2022-09-24T06:16:35.726Z,34.26
2022-09-24T06:19:06.041Z,34.31
2022-09-24T06:21:38.423Z,34.39
2022-09-24T06:24:08.644Z,34.46
2022-09-24T06:26:39.046Z,34.52
2022-09-24T06:29:09.951Z,34.59
2022-09-24T06:31:40.301Z,34.66
2022-09-24T06:34:10.731Z,34.73
2022-09-24T06:36:43.186Z,34.81
2022-09-24T06:39:13.413Z,34.87
2022-09-24T06:41:44.059Z,34.94
2022-09-24T06:44:14.058Z,35.01
2022-09-24T06:46:44.675Z,35.08
2022-09-24T06:49:15.092Z,35.15
2022-09-24T06:51:46.794Z,35.22
2022-09-24T06:54:16.970Z,35.28
2022-09-24T06:56:47.155Z,35.35
2022-09-24T06:59:17.503Z,35.42
2022-09-24T07:01:47.435Z,35.47
2022-09-24T07:04:17.452Z,35.51
2022-09-24T07:07:06.771Z,35.56
2022-09-24T07:09:38.306Z,35.59
2022-09-24T07:12:09.177Z,35.65
2022-09-24T07:14:39.856Z,35.72
2022-09-24T07:17:10.495Z,35.77
2022-09-24T07:19:41.063Z,35.83
2022-09-24T07:22:13.800Z,35.90
2022-09-24T07:24:44.048Z,35.96
2022-09-24T07:27:14.268Z,36.04
2022-09-24T07:29:44.401Z,36.09
2022-09-24T07:32:14.199Z,36.15
2022-09-24T07:34:44.476Z,36.21
2022-09-24T07:37:16.045Z,36.28
2022-09-24T07:39:46.470Z,36.32
2022-09-24T07:42:16.766Z,36.38
2022-09-24T07:44:47.349Z,36.44
2022-09-24T07:47:18.975Z,36.50
2022-09-24T07:49:49.832Z,36.55
2022-09-24T07:52:22.606Z,36.60
2022-09-24T07:54:52.787Z,36.65
2022-09-24T07:57:23.317Z,36.70
2022-09-24T07:59:53.596Z,36.76
2022-09-24T08:02:24.769Z,36.80
2022-09-24T08:04:54.975Z,36.85
2022-09-24T08:07:27.210Z,36.91
2022-09-24T08:10:15.692Z,36.94
2022-09-24T08:16:46.476Z,36.96
2022-09-24T08:19:17.703Z,37.02
2022-09-24T08:21:49.079Z,37.06
2022-09-24T08:24:21.301Z,37.11
2022-09-24T08:26:51.882Z,37.14
2022-09-24T08:29:22.265Z,37.20
2022-09-24T08:31:52.242Z,37.23
2022-09-24T08:34:22.021Z,37.27
2022-09-24T08:36:52.418Z,37.33
2022-09-24T08:39:24.479Z,37.39
2022-09-24T08:42:00.213Z,37.43
2022-09-24T08:44:55.494Z,37.45
2022-09-24T08:47:38.343Z,37.48
2022-09-24T08:50:18.136Z,37.51
2022-09-24T08:53:14.272Z,37.55
2022-09-24T08:55:50.868Z,37.57
2022-09-24T08:58:48.396Z,37.62
2022-09-24T09:01:28.706Z,37.65
2022-09-24T09:04:05.970Z,37.69
2022-09-24T09:07:02.801Z,37.71
2022-09-24T09:10:05.220Z,37.73
2022-09-24T09:12:44.174Z,37.75
2022-09-24T09:15:20.276Z,37.78
2022-09-24T09:17:57.468Z,37.81
2022-09-24T09:20:36.561Z,37.83
2022-09-24T09:23:17.230Z,37.85
2022-09-24T09:25:54.390Z,37.83
2022-09-24T09:28:29.846Z,37.81
2022-09-24T09:31:10.021Z,37.79
2022-09-24T09:34:06.966Z,37.76
2022-09-24T09:36:53.786Z,37.72
2022-09-24T09:39:46.628Z,37.70
2022-09-24T09:42:33.374Z,37.67
2022-09-24T09:45:28.169Z,37.64
2022-09-24T09:48:01.910Z,37.63
2022-09-24T09:50:39.825Z,37.64
2022-09-24T09:53:22.786Z,37.63
2022-09-24T09:56:00.499Z,37.58
2022-09-24T09:58:33.805Z,37.57
2022-09-24T10:01:11.810Z,37.56
2022-09-24T10:03:52.364Z,37.55
2022-09-24T10:06:29.260Z,37.52
2022-09-24T10:09:14.588Z,37.48
2022-09-24T10:11:45.220Z,37.44
2022-09-24T10:14:18.669Z,37.38
2022-09-24T10:16:57.362Z,37.30
2022-09-24T10:19:31.025Z,37.27
2022-09-24T10:22:12.130Z,37.26
2022-09-24T10:24:46.368Z,37.21
2022-09-24T10:27:25.242Z,37.19
2022-09-24T10:30:15.596Z,37.16
2022-09-24T10:32:49.201Z,37.14
2022-09-24T10:35:30.693Z,37.15
2022-09-24T10:38:03.218Z,37.12
2022-09-24T10:40:41.773Z,37.12
2022-09-24T10:43:21.332Z,37.09
2022-09-24T10:46:22.324Z,37.08
2022-09-24T10:49:06.036Z,37.05
2022-09-24T10:51:54.191Z,37.01
2022-09-24T10:54:51.242Z,36.96
2022-09-24T10:57:33.754Z,36.96
2022-09-24T11:00:14.235Z,36.94
2022-09-24T11:03:30.630Z,36.86
2022-09-24T11:06:11.383Z,36.78
2022-09-24T11:09:08.907Z,36.74
2022-09-24T11:11:57.710Z,36.73
2022-09-24T11:14:49.321Z,36.71
2022-09-24T11:17:36.880Z,36.72
2022-09-24T11:20:29.909Z,36.73
2022-09-24T11:23:40.364Z,36.72
2022-09-24T11:26:29.480Z,36.66
2022-09-24T11:29:36.877Z,36.59
2022-09-24T11:32:17.676Z,36.56
2022-09-24T11:35:22.959Z,36.53
2022-09-24T11:38:09.270Z,36.45
2022-09-24T11:41:06.728Z,36.38
2022-09-24T11:44:04.955Z,36.31
2022-09-24T11:46:57.046Z,36.26
2022-09-24T11:49:53.836Z,36.25
2022-09-24T11:52:33.558Z,36.22
2022-09-24T11:55:18.482Z,36.18
2022-09-24T11:57:56.575Z,36.15
2022-09-24T12:00:34.371Z,36.12
2022-09-24T12:03:14.357Z,36.12
2022-09-24T12:05:54.746Z,36.13
2022-09-24T12:08:31.977Z,36.13
2022-09-24T12:11:12.960Z,36.15
2022-09-24T12:13:49.033Z,36.16
2022-09-24T12:16:25.615Z,36.18
2022-09-24T12:19:03.761Z,36.19
2022-09-24T12:21:41.640Z,36.18
2022-09-24T12:24:20.381Z,36.15
2022-09-24T12:26:56.531Z,36.10
2022-09-24T12:29:58.832Z,36.06
2022-09-24T12:32:58.224Z,36.03
2022-09-24T12:35:56.371Z,36.02
2022-09-24T12:38:37.962Z,36.00
2022-09-24T12:41:33.809Z,35.98
2022-09-24T12:44:21.938Z,35.95
2022-09-24T12:46:58.147Z,35.93
2022-09-24T12:49:36.640Z,35.92
2022-09-24T12:52:20.280Z,35.89
2022-09-24T12:55:02.970Z,35.88
2022-09-24T12:57:42.246Z,35.84
2022-09-24T13:00:42.622Z,35.81
2022-09-24T13:03:36.768Z,35.78
2022-09-24T13:06:25.896Z,35.76
2022-09-24T13:08:55.968Z,35.72
2022-09-24T13:11:35.291Z,35.72
2022-09-24T13:14:24.317Z,35.69
2022-09-24T13:16:59.096Z,35.63
2022-09-24T13:19:38.594Z,35.58
2022-09-24T13:22:27.680Z,35.52
2022-09-24T13:25:25.164Z,35.46
2022-09-24T13:28:21.260Z,35.42
2022-09-24T13:31:01.196Z,35.34
2022-09-24T13:33:38.394Z,35.29
2022-09-24T13:36:17.629Z,35.24
2022-09-24T13:38:59.290Z,35.21
2022-09-24T13:41:43.947Z,35.17
2022-09-24T13:44:24.420Z,35.13
2022-09-24T13:47:02.412Z,35.08
2022-09-24T13:49:37.503Z,35.04
2022-09-24T13:52:23.502Z,35.04
2022-09-24T13:55:01.261Z,35.03
2022-09-24T13:57:32.379Z,35.03
2022-09-24T14:00:16.965Z,35.02
2022-09-24T14:02:56.622Z,35.01
2022-09-24T14:05:31.862Z,35.00
2022-09-24T14:08:07.006Z,35.00
2022-09-24T14:10:37.899Z,34.97
2022-09-24T14:13:24.024Z,34.94
2022-09-24T14:15:59.694Z,34.89
2022-09-24T14:18:31.610Z,34.87
2022-09-24T14:21:10.908Z,34.86
2022-09-24T14:23:48.676Z,34.86
2022-09-24T14:26:31.385Z,34.84
2022-09-24T14:29:08.193Z,34.79
2022-09-24T14:31:49.561Z,34.74
2022-09-24T14:34:36.723Z,34.70
2022-09-24T14:37:21.665Z,34.69
2022-09-24T14:40:00.065Z,34.67
2022-09-24T14:42:38.025Z,34.65
2022-09-24T14:45:13.389Z,34.64
2022-09-24T14:47:44.352Z,34.62
2022-09-24T14:50:38.970Z,34.62
2022-09-24T14:53:24.418Z,34.60
2022-09-24T14:55:55.333Z,34.58
2022-09-24T14:58:37.807Z,34.58
2022-09-24T15:01:17.813Z,34.57
2022-09-24T15:03:53.367Z,34.54
2022-09-24T15:06:27.556Z,34.50
2022-09-24T15:09:05.210Z,34.49
2022-09-24T15:11:43.661Z,34.46
2022-09-24T15:14:27.732Z,34.43
2022-09-24T15:16:58.710Z,34.38
2022-09-24T15:19:31.426Z,34.37
2022-09-24T15:22:03.681Z,34.37
2022-09-24T15:24:36.292Z,34.34
2022-09-24T15:27:09.445Z,34.33
2022-09-24T15:29:40.369Z,34.31
2022-09-24T15:32:19.294Z,34.32
2022-09-24T15:34:51.705Z,34.29
2022-09-24T15:37:24.508Z,34.29
2022-09-24T15:40:01.320Z,34.26
2022-09-24T15:42:31.940Z,34.25
2022-09-24T15:45:02.101Z,34.23
2022-09-24T15:47:32.355Z,34.18
2022-09-24T15:50:03.443Z,34.17
2022-09-24T15:52:36.971Z,34.16
2022-09-24T15:55:19.203Z,34.15
2022-09-24T15:57:51.012Z,34.13
2022-09-24T16:00:24.502Z,34.11
2022-09-24T16:02:58.730Z,34.09
2022-09-24T16:05:29.584Z,34.08
2022-09-24T16:08:00.192Z,34.06
2022-09-24T16:10:33.339Z,34.04
2022-09-24T16:13:04.128Z,34.02
2022-09-24T16:15:34.628Z,34.03
2022-09-24T16:18:05.397Z,34.01
2022-09-24T16:20:36.430Z,33.98
2022-09-24T16:23:07.127Z,33.96
2022-09-24T16:25:39.461Z,33.93
2022-09-24T16:28:09.601Z,33.91
2022-09-24T16:30:40.053Z,33.91
2022-09-24T16:33:10.494Z,33.89
2022-09-24T16:35:42.352Z,33.89
2022-09-24T16:38:14.837Z,33.89
2022-09-24T16:40:49.796Z,33.88
2022-09-24T16:43:21.304Z,33.86
2022-09-24T16:45:52.493Z,33.85
2022-09-24T16:48:23.713Z,33.84
2022-09-24T16:50:53.991Z,33.82
2022-09-24T16:53:30.588Z,33.81
2022-09-24T16:56:15.728Z,33.79
2022-09-24T16:58:55.306Z,33.77
2022-09-24T17:01:25.229Z,33.76
2022-09-24T17:03:57.603Z,33.76
2022-09-24T17:06:31.507Z,33.74
2022-09-24T17:09:19.470Z,33.73
2022-09-24T17:11:52.398Z,33.71
2022-09-24T17:14:43.761Z,33.70
2022-09-24T17:17:18.204Z,33.69
2022-09-24T17:19:48.283Z,33.68
2022-09-24T17:22:18.817Z,33.67
2022-09-24T17:24:50.593Z,33.67
2022-09-24T17:27:32.923Z,33.66
2022-09-24T17:30:37.307Z,33.64
2022-09-24T17:33:31.565Z,33.61
2022-09-24T17:36:04.632Z,33.59
2022-09-24T17:38:49.896Z,33.59
2022-09-24T17:41:20.636Z,33.59
2022-09-24T17:43:54.386Z,33.61
2022-09-24T17:46:30.018Z,33.60
2022-09-24T17:49:06.224Z,33.59
2022-09-24T17:51:46.916Z,33.60
2022-09-24T17:54:21.744Z,33.57
2022-09-24T17:56:52.461Z,33.54
2022-09-24T17:59:26.622Z,33.53
2022-09-24T18:01:57.725Z,33.50
2022-09-24T18:04:28.694Z,33.47
2022-09-24T18:06:59.708Z,33.47
2022-09-24T18:09:30.170Z,33.44
2022-09-24T18:12:02.920Z,33.44
2022-09-24T18:14:45.972Z,33.44
2022-09-24T18:17:18.538Z,33.42
2022-09-24T18:19:48.943Z,33.40
2022-09-24T18:22:25.687Z,33.39
2022-09-24T18:25:01.396Z,33.39
2022-09-24T18:27:33.549Z,33.37
2022-09-24T18:30:07.990Z,33.36
2022-09-24T18:32:39.818Z,33.34
2022-09-24T18:35:12.121Z,33.33
2022-09-24T18:37:42.556Z,33.33
2022-09-24T18:40:14.380Z,33.33
2022-09-24T18:42:44.783Z,33.31
2022-09-24T18:45:19.069Z,33.30
2022-09-24T18:47:49.525Z,33.28
2022-09-24T18:50:20.550Z,33.26
2022-09-24T18:52:51.045Z,33.24
2022-09-24T18:55:21.724Z,33.24
2022-09-24T18:57:52.268Z,33.24
2022-09-24T19:00:47.810Z,33.23
2022-09-24T19:03:20.288Z,33.21
2022-09-24T19:05:56.410Z,33.21
2022-09-24T19:08:28.853Z,33.22
2022-09-24T19:11:07.972Z,33.23
2022-09-24T19:13:41.542Z,33.23
2022-09-24T19:16:17.345Z,33.24
2022-09-24T19:18:48.074Z,33.24
2022-09-24T19:21:19.369Z,33.24
2022-09-24T19:23:51.802Z,33.26
2022-09-24T19:26:24.875Z,33.25
2022-09-24T19:28:56.647Z,33.25
2022-09-24T19:31:31.986Z,33.26
2022-09-24T19:34:04.935Z,33.26
2022-09-24T19:36:44.197Z,33.25
2022-09-24T19:39:17.114Z,33.24
2022-09-24T19:41:47.832Z,33.22
2022-09-24T19:44:19.012Z,33.22
2022-09-24T19:46:52.127Z,33.21
2022-09-24T19:49:21.812Z,33.20
2022-09-24T19:51:52.546Z,33.20
2022-09-24T19:54:23.264Z,33.19
2022-09-24T19:56:55.034Z,33.18
2022-09-24T19:59:25.781Z,33.19
2022-09-24T20:01:57.432Z,33.19
2022-09-24T20:04:27.538Z,33.19
2022-09-24T20:07:01.174Z,33.18
2022-09-24T20:09:34.095Z,33.17
2022-09-24T20:12:07.826Z,33.17
2022-09-24T20:14:38.026Z,33.17
2022-09-24T20:17:10.069Z,33.16
2022-09-24T20:19:41.397Z,33.16
2022-09-24T20:22:17.151Z,33.17
2022-09-24T20:24:48.457Z,33.16
2022-09-24T20:27:35.578Z,33.16
2022-09-24T20:30:06.306Z,33.14
2022-09-24T20:32:38.794Z,33.15
2022-09-24T20:35:10.840Z,33.14
2022-09-24T20:37:41.316Z,33.14
2022-09-24T20:40:13.292Z,33.15
2022-09-24T20:42:43.024Z,33.13
2022-09-24T20:45:13.251Z,33.13
2022-09-24T20:47:45.396Z,33.13
2022-09-24T20:50:15.830Z,33.12
2022-09-24T20:52:46.304Z,33.12
2022-09-24T20:55:17.207Z,33.11
2022-09-24T20:57:48.005Z,33.09
2022-09-24T21:00:18.335Z,33.09
2022-09-24T21:02:50.796Z,33.09
2022-09-24T21:05:21.404Z,33.09
2022-09-24T21:07:51.534Z,33.08
2022-09-24T21:10:21.776Z,33.07
2022-09-24T21:12:52.494Z,33.09
2022-09-24T21:15:22.732Z,33.08
2022-09-24T21:18:21.132Z,33.07
2022-09-24T21:20:45.778Z,33.07
2022-09-24T21:23:16.867Z,33.07
2022-09-24T21:25:54.520Z,33.05
2022-09-24T21:28:26.390Z,33.05
2022-09-24T21:31:03.795Z,33.05
2022-09-24T21:33:37.798Z,33.04
2022-09-24T21:36:12.245Z,33.02
2022-09-24T21:38:42.998Z,33.02
2022-09-24T21:41:12.830Z,33.02
2022-09-24T21:43:42.744Z,33.01
2022-09-24T21:46:14.377Z,33.00
2022-09-24T21:48:46.958Z,32.99
2022-09-24T21:51:21.961Z,32.99
2022-09-24T21:53:53.043Z,32.99
2022-09-24T21:56:25.368Z,32.98
2022-09-24T21:58:56.453Z,32.98
2022-09-24T22:01:29.617Z,32.98
2022-09-24T22:04:07.789Z,32.97
2022-09-24T22:06:38.103Z,32.96
2022-09-24T22:09:10.802Z,32.96
2022-09-24T22:11:42.114Z,32.95
2022-09-24T22:14:12.515Z,32.95
2022-09-24T22:16:43.298Z,32.93
2022-09-24T22:19:15.631Z,32.93
2022-09-24T22:21:45.944Z,32.92
2022-09-24T22:24:17.225Z,32.90
2022-09-24T22:26:47.843Z,32.88
2022-09-24T22:29:18.465Z,32.84
2022-09-24T22:31:48.337Z,32.82
2022-09-24T22:34:51.566Z,32.80
2022-09-24T22:37:21.446Z,32.74
2022-09-24T22:39:52.832Z,32.72
2022-09-24T22:42:23.158Z,32.70
2022-09-24T22:44:53.384Z,32.67
2022-09-24T22:47:23.643Z,32.66
2022-09-24T22:49:55.945Z,32.66
2022-09-24T22:52:26.388Z,32.66
2022-09-24T22:54:56.316Z,32.66
2022-09-24T22:57:26.873Z,32.67
2022-09-24T22:59:57.027Z,32.67
2022-09-24T23:02:27.431Z,32.68
2022-09-24T23:05:00.070Z,32.68
2022-09-24T23:07:30.200Z,32.68
2022-09-24T23:10:00.490Z,32.68
2022-09-24T23:12:34.862Z,32.68
2022-09-24T23:15:05.499Z,32.68
2022-09-24T23:17:39.159Z,32.66
2022-09-24T23:20:14.898Z,32.65
2022-09-24T23:22:45.225Z,32.63
2022-09-24T23:25:15.387Z,32.63
2022-09-24T23:27:45.399Z,32.63
2022-09-24T23:30:16.435Z,32.63
2022-09-24T23:32:46.849Z,32.64
2022-09-24T23:35:19.282Z,32.64
2022-09-24T23:37:49.816Z,32.63
2022-09-24T23:40:20.340Z,32.63
2022-09-24T23:42:50.754Z,32.63
2022-09-24T23:45:22.136Z,32.64
2022-09-24T23:47:52.387Z,32.64
2022-09-24T23:50:24.211Z,32.64
2022-09-24T23:52:54.391Z,32.63
2022-09-24T23:55:25.117Z,32.63
2022-09-24T23:57:55.402Z,32.62
